Time;durP1;ratioP1;P1;durP2;ratioP2;P2;SDS_P1;SDS_P2;PMS_P1;PMS_P2;Temp;Humidity;BMP_temperature;BMP_pressure;BME280_temperature;BME280_humidity;BME280_pressure;Samples;Min_cycle;Max_cycle;Signal;HPM_P1;HPM_P2
2023/06/13 00:00:38;;;;;;;5.65;3.85;;;24.00;58.90;;;;;;10466063;28;20032;-68
2023/06/13 00:05:39;;;;;;;6.68;3.72;;;24.00;58.90;;;;;;10477088;28;20028;-68
2023/06/13 00:10:39;;;;;;;5.72;3.63;;;23.90;58.80;;;;;;10471355;28;20040;-68
2023/06/13 00:15:54;;;;;;;5.72;3.80;;;23.90;58.80;;;;;;10474906;28;20024;-68
2023/06/13 00:20:55;;;;;;;4.78;4.03;;;23.90;58.70;;;;;;10477040;28;20013;-69
2023/06/13 00:25:56;;;;;;;5.72;3.75;;;23.80;58.70;;;;;;10468778;28;20139;-69
2023/06/13 00:30:57;;;;;;;6.30;3.92;;;23.80;58.60;;;;;;10473968;28;20040;-68
2023/06/13 00:35:58;;;;;;;6.13;4.10;;;23.70;58.50;;;;;;10474573;28;20416;-68
2023/06/13 00:40:58;;;;;;;4.05;3.47;;;23.70;58.50;;;;;;10481878;28;20686;-68
2023/06/13 00:46:00;;;;;;;5.55;3.88;;;23.70;58.50;;;;;;10462274;28;20025;-68
2023/06/13 00:51:02;;;;;;;5.93;4.03;;;23.70;58.50;;;;;;10468712;28;20044;-68
2023/06/13 00:56:06;;;;;;;4.68;3.63;;;23.60;58.50;;;;;;10479481;28;20085;-68
2023/06/13 01:01:09;;;;;;;7.80;3.83;;;23.60;58.50;;;;;;10476731;28;20526;-68
2023/06/13 01:06:10;;;;;;;5.57;3.85;;;23.60;58.50;;;;;;10463936;28;20488;-69
2023/06/13 01:11:31;;;;;;;4.65;3.60;;;23.50;58.40;;;;;;10473009;28;20120;-68
2023/06/13 01:16:43;;;;;;;5.22;3.67;;;23.40;58.40;;;;;;10467958;28;20040;-68
2023/06/13 01:21:45;;;;;;;7.57;4.47;;;23.40;58.30;;;;;;10480204;28;20450;-68
2023/06/13 01:26:46;;;;;;;4.75;3.65;;;23.40;58.40;;;;;;10462498;28;20020;-69
2023/06/13 01:31:51;;;;;;;5.47;4.03;;;23.30;58.30;;;;;;10479618;28;20030;-68
2023/06/13 01:36:52;;;;;;;4.95;3.70;;;23.20;58.30;;;;;;10469447;28;20024;-68
2023/06/13 01:41:53;;;;;;;5.03;3.58;;;23.30;59.00;;;;;;10463581;28;20040;-69
2023/06/13 01:46:53;;;;;;;5.20;3.97;;;23.20;58.30;;;;;;10464281;28;20511;-68
2023/06/13 01:52:11;;;;;;;5.45;3.80;;;23.20;58.40;;;;;;10471262;28;20020;-69
2023/06/13 01:57:15;;;;;;;5.95;4.00;;;23.10;58.30;;;;;;10467035;28;20025;-68
2023/06/13 02:02:16;;;;;;;5.80;4.25;;;23.10;58.30;;;;;;10463358;28;20016;-68
2023/06/13 02:07:18;;;;;;;5.60;4.28;;;23.10;58.30;;;;;;10465043;28;21054;-68
2023/06/13 02:12:18;;;;;;;4.65;3.85;;;23.00;58.30;;;;;;10474104;28;20036;-68
2023/06/13 02:17:19;;;;;;;5.85;4.30;;;23.00;58.30;;;;;;10467926;28;20051;-68
2023/06/13 02:22:19;;;;;;;6.18;4.57;;;22.90;58.30;;;;;;10474762;28;20108;-69
2023/06/13 02:27:20;;;;;;;6.07;4.50;;;22.90;58.30;;;;;;10473441;28;20029;-68
2023/06/13 02:32:22;;;;;;;5.72;4.28;;;22.90;58.30;;;;;;10465628;28;20032;-68
2023/06/13 02:37:23;;;;;;;6.63;4.53;;;22.90;58.30;;;;;;10479619;28;20023;-68
2023/06/13 02:42:26;;;;;;;5.65;4.35;;;22.80;58.30;;;;;;10469425;28;20298;-68
2023/06/13 02:47:27;;;;;;;5.80;4.45;;;22.80;58.30;;;;;;10476998;28;20060;-69
2023/06/13 02:52:27;;;;;;;6.50;4.90;;;22.80;58.40;;;;;;10469904;28;20639;-68
2023/06/13 02:57:28;;;;;;;5.93;4.70;;;22.70;58.30;;;;;;10481920;28;20415;-68
2023/06/13 03:02:28;;;;;;;6.75;4.55;;;22.70;58.40;;;;;;10487882;28;20059;-68
2023/06/13 03:07:31;;;;;;;5.50;4.53;;;22.70;58.50;;;;;;10473301;28;20017;-68
2023/06/13 03:12:32;;;;;;;5.97;4.45;;;22.60;58.50;;;;;;10482755;28;20559;-68
2023/06/13 03:17:33;;;;;;;5.75;4.50;;;22.60;58.50;;;;;;10479078;28;20021;-68
2023/06/13 03:22:33;;;;;;;6.57;4.47;;;22.30;58.30;;;;;;10474586;28;20020;-68
2023/06/13 03:27:35;;;;;;;5.22;4.45;;;22.50;58.50;;;;;;10482112;28;20032;-68
2023/06/13 03:32:36;;;;;;;7.78;4.70;;;22.50;58.60;;;;;;10484925;28;20056;-68
2023/06/13 03:37:36;;;;;;;5.82;4.40;;;22.50;58.60;;;;;;10472298;28;20040;-68
2023/06/13 03:42:37;;;;;;;7.03;4.95;;;22.40;58.60;;;;;;10478922;28;20031;-68
2023/06/13 03:47:37;;;;;;;6.15;4.70;;;22.40;58.60;;;;;;10483613;28;20548;-68
2023/06/13 03:52:38;;;;;;;5.78;4.55;;;22.40;58.70;;;;;;10474806;28;20598;-68
2023/06/13 03:57:39;;;;;;;6.25;4.80;;;22.30;58.70;;;;;;10480385;28;20408;-68
2023/06/13 04:02:41;;;;;;;7.32;5.13;;;22.30;58.80;;;;;;10484160;28;20445;-68
2023/06/13 04:07:42;;;;;;;7.45;4.95;;;22.30;58.90;;;;;;10473428;28;20020;-68
2023/06/13 04:12:43;;;;;;;6.50;4.97;;;22.30;58.90;;;;;;10484619;28;20025;-68
2023/06/13 04:17:44;;;;;;;5.88;4.80;;;22.20;58.90;;;;;;10482296;28;20035;-68
2023/06/13 04:22:45;;;;;;;10.63;5.22;;;22.20;58.90;;;;;;10486969;28;20020;-68
2023/06/13 04:27:48;;;;;;;7.10;4.82;;;22.20;59.00;;;;;;10472765;28;20017;-68
2023/06/13 04:32:49;;;;;;;6.40;5.10;;;22.20;59.10;;;;;;10471305;28;20021;-68
2023/06/13 04:37:51;;;;;;;9.15;5.00;;;22.10;59.10;;;;;;10477194;28;20028;-68
2023/06/13 04:42:54;;;;;;;9.85;4.95;;;22.10;59.10;;;;;;10475251;28;20017;-68
2023/06/13 04:48:01;;;;;;;10.20;5.10;;;22.10;59.20;;;;;;10481849;28;20020;-68
2023/06/13 04:53:02;;;;;;;8.90;4.57;;;22.10;59.20;;;;;;10477620;28;20199;-68
2023/06/13 04:58:03;;;;;;;8.10;4.72;;;22.10;59.30;;;;;;10465953;28;20056;-68
2023/06/13 05:03:03;;;;;;;6.35;4.70;;;22.10;59.40;;;;;;10476854;28;20017;-68
2023/06/13 05:08:05;;;;;;;5.85;4.55;;;22.00;59.40;;;;;;10481970;28;20032;-68
2023/06/13 05:13:06;;;;;;;7.07;4.82;;;22.00;59.50;;;;;;10481450;28;20024;-69
2023/06/13 05:18:08;;;;;;;5.60;4.70;;;22.00;59.50;;;;;;10474370;28;20021;-68
2023/06/13 05:23:08;;;;;;;6.70;4.55;;;22.00;59.50;;;;;;10477688;28;20017;-69
2023/06/13 05:28:09;;;;;;;6.78;4.75;;;22.00;59.50;;;;;;10470487;28;20032;-68
2023/06/13 05:33:09;;;;;;;7.78;4.38;;;21.90;59.60;;;;;;10475414;28;20524;-69
2023/06/13 05:38:11;;;;;;;8.35;4.50;;;21.90;59.70;;;;;;10471088;28;20447;-70
2023/06/13 05:43:12;;;;;;;6.75;4.43;;;21.90;59.70;;;;;;10468213;28;20112;-68
2023/06/13 05:48:13;;;;;;;6.32;4.55;;;21.90;59.70;;;;;;10461106;28;20500;-68
2023/06/13 05:53:14;;;;;;;6.90;4.60;;;21.90;59.80;;;;;;10472629;28;20090;-68
2023/06/13 05:58:14;;;;;;;6.10;4.30;;;21.90;59.90;;;;;;10467610;28;20024;-68
2023/06/13 06:03:15;;;;;;;5.70;4.18;;;21.90;59.90;;;;;;10465609;28;20070;-69
2023/06/13 06:08:16;;;;;;;4.75;3.90;;;21.80;59.90;;;;;;10476646;28;20431;-68
2023/06/13 06:13:17;;;;;;;6.63;4.30;;;21.80;59.90;;;;;;10481779;28;20043;-67
2023/06/13 06:18:20;;;;;;;5.70;4.25;;;21.80;59.90;;;;;;10491406;28;20096;-68
2023/06/13 06:23:21;;;;;;;6.95;4.63;;;21.90;60.00;;;;;;10490337;28;20020;-69
2023/06/13 06:28:21;;;;;;;6.18;4.00;;;21.80;59.90;;;;;;10486583;28;20031;-69
2023/06/13 06:33:22;;;;;;;6.60;4.43;;;21.40;60.40;;;;;;10491279;28;20021;-69
2023/06/13 06:38:23;;;;;;;10.07;4.95;;;21.10;61.00;;;;;;10487190;28;20025;-69
2023/06/13 06:43:23;;;;;;;5.75;3.85;;;20.90;61.50;;;;;;10484769;28;20396;-69
2023/06/13 06:48:24;;;;;;;6.75;4.00;;;20.90;62.00;;;;;;10486716;28;20032;-71
2023/06/13 06:53:24;;;;;;;4.90;4.10;;;20.70;62.10;;;;;;10485151;28;20111;-70
2023/06/13 06:58:25;;;;;;;7.82;4.40;;;20.50;62.50;;;;;;10491102;28;20032;-69
2023/06/13 07:03:25;;;;;;;8.93;4.72;;;20.50;62.60;;;;;;10485911;28;20017;-69
2023/06/13 07:08:26;;;;;;;7.72;4.57;;;20.40;63.00;;;;;;10485916;28;20078;-68
2023/06/13 07:13:27;;;;;;;5.55;4.43;;;20.50;63.30;;;;;;10492217;28;20041;-70
2023/06/13 07:18:29;;;;;;;7.43;4.10;;;20.50;63.20;;;;;;10485407;28;20016;-70
2023/06/13 07:23:30;;;;;;;16.98;4.78;;;20.50;63.70;;;;;;10485894;28;20033;-69
2023/06/13 07:28:31;;;;;;;7.47;4.30;;;20.50;63.10;;;;;;10493871;28;20024;-70
2023/06/13 07:33:31;;;;;;;7.88;4.13;;;20.60;63.10;;;;;;10496103;28;20078;-69
2023/06/13 07:38:32;;;;;;;7.60;4.43;;;20.70;63.00;;;;;;10476852;28;20083;-69
2023/06/13 07:43:33;;;;;;;5.10;3.80;;;20.70;63.00;;;;;;10482281;28;20020;-69
2023/06/13 07:48:33;;;;;;;7.60;4.50;;;20.80;63.80;;;;;;10487304;28;20116;-72
2023/06/13 07:53:41;;;;;;;7.30;4.20;;;20.80;63.20;;;;;;10489260;28;20013;-71
2023/06/13 07:58:44;;;;;;;5.78;4.00;;;20.90;63.20;;;;;;10487061;28;20032;-72
2023/06/13 08:03:45;;;;;;;6.22;4.32;;;20.90;62.90;;;;;;10491228;28;20027;-69
2023/06/13 08:08:45;;;;;;;7.03;4.05;;;21.00;62.90;;;;;;10474853;28;20052;-69
2023/06/13 08:13:46;;;;;;;6.53;4.40;;;21.10;62.90;;;;;;10482482;28;20032;-70
2023/06/13 08:18:47;;;;;;;11.82;4.88;;;21.20;62.90;;;;;;10484479;28;20025;-69
2023/06/13 08:23:47;;;;;;;11.13;4.47;;;21.30;62.60;;;;;;10473449;28;20439;-68
2023/06/13 08:28:48;;;;;;;7.55;5.38;;;21.40;62.90;;;;;;10478555;28;20501;-70
2023/06/13 08:33:49;;;;;;;9.50;4.93;;;21.40;63.00;;;;;;10473928;28;20033;-70
2023/06/13 08:38:49;;;;;;;9.48;4.90;;;21.30;62.90;;;;;;10472914;28;20679;-70
2023/06/13 08:43:51;;;;;;;8.88;4.80;;;21.50;63.90;;;;;;10477420;28;20074;-69
2023/06/13 08:48:51;;;;;;;6.65;4.65;;;21.60;63.00;;;;;;10477899;28;20103;-69
2023/06/13 08:53:56;;;;;;;7.97;4.88;;;21.70;62.70;;;;;;10478726;28;20029;-70
2023/06/13 08:59:07;;;;;;;7.22;5.05;;;21.80;62.60;;;;;;10469703;28;20060;-70
2023/06/13 09:04:10;;;;;;;9.38;4.70;;;21.90;62.20;;;;;;10485173;28;20518;-70
2023/06/13 09:14:17;;;;;;;11.77;5.25;;;22.10;62.10;;;;;;10556550;27;20416;-71
2023/06/13 09:19:17;;;;;;;9.65;4.97;;;22.30;61.10;;;;;;10517023;28;20020;-72
2023/06/13 09:24:18;;;;;;;6.18;4.55;;;22.50;60.90;;;;;;10517673;28;20391;-69
2023/06/13 09:29:19;;;;;;;5.97;4.70;;;22.60;60.70;;;;;;10510821;28;20099;-68
2023/06/13 09:34:20;;;;;;;7.60;4.47;;;22.70;60.40;;;;;;10516712;28;20020;-69
2023/06/13 09:39:21;;;;;;;8.02;4.38;;;22.80;60.30;;;;;;10514699;28;20016;-68
2023/06/13 09:44:24;;;;;;;8.75;4.50;;;23.00;60.30;;;;;;10513150;28;20834;-69
2023/06/13 09:49:30;;;;;;;5.35;4.28;;;23.10;60.00;;;;;;10511594;28;20481;-69
2023/06/13 09:54:31;;;;;;;4.82;4.00;;;23.30;58.40;;;;;;10513114;28;20055;-69
2023/06/13 09:59:31;;;;;;;6.60;4.40;;;23.40;58.70;;;;;;10513078;28;20020;-69
2023/06/13 10:04:33;;;;;;;7.47;4.35;;;23.40;58.60;;;;;;10513063;28;20182;-69
2023/06/13 10:09:34;;;;;;;7.88;3.97;;;23.50;58.50;;;;;;10515325;28;20589;-69
2023/06/13 10:14:40;;;;;;;7.18;3.95;;;23.70;58.70;;;;;;10511895;28;20028;-69
2023/06/13 10:19:42;;;;;;;5.68;4.10;;;23.90;58.50;;;;;;10515766;28;21641;-69
2023/06/13 10:24:44;;;;;;;5.18;3.97;;;24.00;57.10;;;;;;10488159;28;20089;-69
2023/06/13 10:29:57;;;;;;;5.50;4.07;;;24.10;57.10;;;;;;10483093;28;20062;-69
2023/06/13 10:35:20;;;;;;;6.28;4.28;;;24.30;56.30;;;;;;10482008;28;20016;-69
2023/06/13 10:40:30;;;;;;;6.10;4.15;;;24.40;55.30;;;;;;10495140;28;20017;-69
2023/06/13 10:45:32;;;;;;;8.98;3.83;;;24.40;54.80;;;;;;10482599;28;20506;-69
2023/06/13 10:50:40;;;;;;;7.85;4.30;;;24.50;55.00;;;;;;10482197;28;20620;-69
2023/06/13 10:55:43;;;;;;;5.78;4.10;;;24.60;54.40;;;;;;10481976;28;20052;-69
2023/06/13 11:00:44;;;;;;;7.30;4.03;;;24.70;54.30;;;;;;10484179;28;20031;-69
2023/06/13 11:05:45;;;;;;;5.55;3.92;;;24.80;54.40;;;;;;10486216;28;20024;-69
2023/06/13 11:10:48;;;;;;;7.75;3.80;;;24.90;53.40;;;;;;10478703;28;20032;-68
2023/06/13 11:16:19;;;;;;;7.20;4.18;;;25.00;53.10;;;;;;10485854;28;20029;-69
2023/06/13 11:21:26;;;;;;;6.90;4.10;;;25.00;51.50;;;;;;10482908;28;20021;-70
2023/06/13 11:26:26;;;;;;;5.32;4.03;;;25.00;52.60;;;;;;10487786;28;20036;-69
2023/06/13 11:31:29;;;;;;;5.82;3.67;;;25.10;52.50;;;;;;10486523;28;20666;-69
2023/06/13 11:36:34;;;;;;;6.30;3.88;;;25.20;52.10;;;;;;10484587;28;20021;-69
2023/06/13 11:41:40;;;;;;;7.68;4.10;;;25.30;51.30;;;;;;10486474;28;20074;-70
2023/06/13 11:46:46;;;;;;;5.03;3.60;;;25.30;51.60;;;;;;10486771;28;20024;-70
2023/06/13 11:51:46;;;;;;;6.93;4.13;;;25.30;51.30;;;;;;10478077;28;20070;-70
2023/06/13 11:56:54;;;;;;;6.38;3.92;;;25.40;51.60;;;;;;10483942;28;20103;-70
2023/06/13 12:01:54;;;;;;;6.38;4.00;;;25.60;50.00;;;;;;10482085;28;20024;-70
2023/06/13 12:06:57;;;;;;;5.97;3.72;;;25.60;49.80;;;;;;10484661;28;20480;-69
2023/06/13 12:11:58;;;;;;;8.30;4.35;;;25.60;49.80;;;;;;10486311;28;20074;-66
2023/06/13 12:17:00;;;;;;;5.22;3.78;;;25.70;50.20;;;;;;10485156;28;20017;-65
2023/06/13 12:22:00;;;;;;;4.78;3.85;;;25.60;50.70;;;;;;10497964;28;20032;-65
2023/06/13 12:27:02;;;;;;;6.32;3.88;;;25.50;51.40;;;;;;10479806;28;20022;-64
2023/06/13 12:32:03;;;;;;;10.98;4.85;;;25.40;51.80;;;;;;10482496;28;20135;-72
2023/06/13 12:37:07;;;;;;;4.93;3.60;;;25.60;50.80;;;;;;10494844;28;20100;-72
2023/06/13 12:42:08;;;;;;;5.60;3.90;;;25.80;49.50;;;;;;10483788;28;20492;-71
2023/06/13 12:47:11;;;;;;;6.25;3.88;;;26.00;48.90;;;;;;10498949;28;20030;-67
2023/06/13 12:52:15;;;;;;;4.93;3.75;;;26.10;49.40;;;;;;10483936;28;20078;-67
2023/06/13 12:57:16;;;;;;;5.82;3.70;;;26.00;50.00;;;;;;10484515;28;20016;-66
2023/06/13 13:02:19;;;;;;;7.47;4.03;;;25.90;50.80;;;;;;10484243;28;20079;-67
2023/06/13 13:07:20;;;;;;;5.93;3.60;;;25.80;51.20;;;;;;10479227;28;20021;-66
2023/06/13 13:12:21;;;;;;;5.18;3.70;;;25.80;51.70;;;;;;10482107;28;20480;-66
2023/06/13 13:17:22;;;;;;;4.38;3.50;;;25.70;52.10;;;;;;10482980;28;20354;-66
2023/06/13 13:22:23;;;;;;;5.07;3.28;;;25.70;52.50;;;;;;10477650;28;20024;-66
2023/06/13 13:27:24;;;;;;;3.92;3.25;;;25.70;52.70;;;;;;10478318;28;20024;-67
2023/06/13 13:32:25;;;;;;;7.50;3.45;;;25.80;53.00;;;;;;10484110;28;20025;-66
2023/06/13 13:37:25;;;;;;;4.65;3.10;;;25.80;53.10;;;;;;10482003;28;20023;-66
2023/06/13 13:42:26;;;;;;;4.15;3.30;;;25.90;53.20;;;;;;10479889;28;20111;-67
2023/06/13 13:47:26;;;;;;;4.35;3.10;;;26.00;53.40;;;;;;10482785;28;20078;-68
2023/06/13 13:52:27;;;;;;;3.67;3.05;;;26.00;53.50;;;;;;10480988;28;20497;-66
2023/06/13 13:57:28;;;;;;;4.30;3.45;;;26.00;53.60;;;;;;10485857;28;20028;-67
2023/06/13 14:02:28;;;;;;;3.78;3.38;;;26.20;53.80;;;;;;10489635;28;20028;-66
2023/06/13 14:07:29;;;;;;;3.97;3.22;;;26.20;54.00;;;;;;10490777;28;20504;-67
2023/06/13 14:12:30;;;;;;;4.50;3.40;;;26.30;54.00;;;;;;10488614;28;20028;-67
2023/06/13 14:17:30;;;;;;;4.43;2.97;;;26.40;54.00;;;;;;10499692;28;20036;-67
2023/06/13 14:22:31;;;;;;;3.70;3.03;;;26.40;54.20;;;;;;10488327;28;20021;-67
2023/06/13 14:27:31;;;;;;;5.45;3.50;;;26.50;54.30;;;;;;10489559;28;20028;-67
2023/06/13 14:32:32;;;;;;;5.10;3.55;;;26.60;54.30;;;;;;10488669;28;20021;-67
2023/06/13 14:37:33;;;;;;;5.38;3.60;;;26.70;54.40;;;;;;10488592;28;20158;-67
2023/06/13 14:42:33;;;;;;;5.03;2.95;;;26.80;54.60;;;;;;10486079;28;20036;-67
2023/06/13 14:47:34;;;;;;;5.72;3.45;;;26.90;54.60;;;;;;10484227;28;20103;-67
2023/06/13 14:52:38;;;;;;;4.20;3.40;;;27.00;54.70;;;;;;10488184;28;20036;-67
2023/06/13 14:57:39;;;;;;;7.97;3.70;;;27.10;54.90;;;;;;10487289;28;20499;-67
2023/06/13 15:02:39;;;;;;;9.18;3.72;;;27.20;54.80;;;;;;10481126;28;20106;-67
2023/06/13 15:07:40;;;;;;;3.60;3.30;;;27.20;54.70;;;;;;10482913;28;20031;-68
2023/06/13 15:12:41;;;;;;;5.32;3.35;;;27.30;54.70;;;;;;10485384;28;20041;-68
2023/06/13 15:17:41;;;;;;;4.70;3.35;;;27.40;54.80;;;;;;10472990;28;20082;-67
2023/06/13 15:22:42;;;;;;;5.07;3.30;;;27.50;55.00;;;;;;10489252;28;20028;-68
2023/06/13 15:27:43;;;;;;;3.95;3.10;;;27.50;54.90;;;;;;10487546;28;20024;-68
2023/06/13 15:32:43;;;;;;;4.82;3.38;;;27.60;55.00;;;;;;10479418;28;20136;-66
2023/06/13 15:37:44;;;;;;;5.93;3.40;;;27.70;55.00;;;;;;10478849;28;20024;-66
2023/06/13 15:42:44;;;;;;;5.00;3.78;;;27.60;55.10;;;;;;10482589;28;20054;-67
2023/06/13 15:47:45;;;;;;;4.25;3.30;;;27.70;55.30;;;;;;10482125;28;20025;-67
2023/06/13 15:52:46;;;;;;;6.03;3.70;;;27.80;55.40;;;;;;10480161;28;20032;-67
2023/06/13 15:57:47;;;;;;;4.90;3.17;;;27.80;55.50;;;;;;10483296;28;20060;-66
2023/06/13 16:02:48;;;;;;;3.30;3.00;;;27.90;55.60;;;;;;10481320;28;20029;-66
2023/06/13 16:07:49;;;;;;;4.80;3.70;;;27.70;55.70;;;;;;10479762;28;20058;-66
2023/06/13 16:12:51;;;;;;;4.93;2.95;;;27.50;55.70;;;;;;10482799;28;20040;-70
2023/06/13 16:17:52;;;;;;;4.28;3.00;;;27.40;54.50;;;;;;10481904;28;20028;-71
2023/06/13 16:22:52;;;;;;;4.20;3.10;;;27.00;53.70;;;;;;10477939;28;20451;-69
2023/06/13 16:27:53;;;;;;;7.93;3.35;;;26.60;53.90;;;;;;10481413;28;20036;-70
2023/06/13 16:32:55;;;;;;;4.65;2.97;;;26.50;53.50;;;;;;10480309;28;20463;-70
2023/06/13 16:37:55;;;;;;;7.38;2.97;;;26.30;53.20;;;;;;10479831;28;20013;-69
2023/06/13 16:42:56;;;;;;;6.40;3.25;;;26.20;52.70;;;;;;10478617;28;20013;-69
2023/06/13 16:47:57;;;;;;;4.05;3.00;;;26.00;52.50;;;;;;10486806;28;20108;-70
2023/06/13 16:52:58;;;;;;;7.22;3.08;;;25.90;52.70;;;;;;10480464;28;20039;-69
2023/06/13 16:57:59;;;;;;;5.38;2.60;;;25.90;52.70;;;;;;10481380;28;20408;-68
2023/06/13 17:03:00;;;;;;;4.05;2.72;;;25.80;53.00;;;;;;10483847;28;20046;-68
2023/06/13 17:08:00;;;;;;;6.10;3.20;;;25.60;52.90;;;;;;10483643;28;20025;-71
2023/06/13 17:13:01;;;;;;;3.60;2.50;;;25.50;52.50;;;;;;10484187;28;20107;-69
2023/06/13 17:18:02;;;;;;;5.00;2.80;;;25.40;52.80;;;;;;10480855;28;20051;-70
2023/06/13 17:23:03;;;;;;;6.72;2.60;;;25.30;52.80;;;;;;10476822;28;20024;-68
2023/06/13 17:28:04;;;;;;;6.55;3.00;;;25.20;53.10;;;;;;10481181;28;20039;-69
2023/06/13 17:33:05;;;;;;;4.38;2.50;;;25.20;53.20;;;;;;10484676;28;20025;-69
2023/06/13 17:38:06;;;;;;;6.93;2.63;;;25.20;53.20;;;;;;10487556;28;20048;-68
2023/06/13 17:43:08;;;;;;;5.28;2.85;;;25.20;53.40;;;;;;10480596;28;20062;-70
2023/06/13 17:48:09;;;;;;;5.30;3.00;;;25.10;53.50;;;;;;10499209;28;20071;-69
2023/06/13 17:53:10;;;;;;;3.38;2.20;;;24.90;53.30;;;;;;10503963;28;20440;-69
2023/06/13 17:58:10;;;;;;;5.32;2.80;;;24.90;53.10;;;;;;10500960;28;20021;-70
2023/06/13 18:03:11;;;;;;;3.72;2.90;;;24.80;52.90;;;;;;10487486;28;20027;-70
2023/06/13 18:08:11;;;;;;;4.07;2.70;;;24.70;52.70;;;;;;10489839;28;20033;-71
2023/06/13 18:13:13;;;;;;;2.67;2.28;;;24.60;52.50;;;;;;10484235;28;20025;-71
2023/06/13 18:18:13;;;;;;;2.67;2.33;;;24.50;52.30;;;;;;10485584;28;20147;-70
2023/06/13 18:23:14;;;;;;;5.38;2.28;;;24.40;52.30;;;;;;10481638;28;20107;-69
2023/06/13 18:28:15;;;;;;;9.05;2.90;;;24.30;52.50;;;;;;10502247;28;20031;-68
2023/06/13 18:33:16;;;;;;;6.13;2.70;;;24.20;52.50;;;;;;10486621;28;20028;-68
2023/06/13 18:38:16;;;;;;;4.47;2.33;;;24.10;52.60;;;;;;10480550;28;20427;-68
2023/06/13 18:43:17;;;;;;;4.43;2.35;;;24.00;52.50;;;;;;10481673;28;20578;-68
2023/06/13 18:48:18;;;;;;;3.88;2.17;;;24.00;52.50;;;;;;10475840;28;20036;-68
2023/06/13 18:53:18;;;;;;;4.22;2.50;;;23.90;52.60;;;;;;10482766;28;20021;-68
2023/06/13 18:58:19;;;;;;;6.13;2.35;;;23.80;52.70;;;;;;10481815;28;20355;-70
2023/06/13 19:03:22;;;;;;;4.63;2.30;;;23.70;52.70;;;;;;10486318;28;20469;-70
2023/06/13 19:08:23;;;;;;;4.50;2.08;;;23.60;52.70;;;;;;10485776;28;20020;-70
2023/06/13 19:13:24;;;;;;;3.70;2.60;;;23.60;52.60;;;;;;10481140;28;20232;-70
2023/06/13 19:18:25;;;;;;;3.78;2.22;;;23.50;52.60;;;;;;10486392;28;20590;-70
2023/06/13 19:23:25;;;;;;;3.55;2.40;;;23.40;52.70;;;;;;10499388;28;20480;-69
2023/06/13 19:28:26;;;;;;;3.83;2.42;;;23.30;52.70;;;;;;10491557;28;20033;-68
2023/06/13 19:33:27;;;;;;;4.38;2.30;;;23.20;52.60;;;;;;10480322;28;20108;-68
2023/06/13 19:38:31;;;;;;;5.32;2.10;;;23.10;52.50;;;;;;10477692;28;20036;-68
2023/06/13 19:43:32;;;;;;;4.25;2.35;;;23.00;52.60;;;;;;10482050;28;20036;-67
2023/06/13 19:48:33;;;;;;;8.15;2.38;;;22.90;52.60;;;;;;10483279;28;20033;-68
2023/06/13 19:53:35;;;;;;;4.28;2.33;;;22.80;52.50;;;;;;10475939;28;20067;-68
2023/06/13 19:58:36;;;;;;;2.72;2.10;;;22.70;52.50;;;;;;10470156;28;20103;-67
2023/06/13 20:03:36;;;;;;;4.72;2.50;;;22.70;52.80;;;;;;10476013;28;20522;-68
2023/06/13 20:08:37;;;;;;;4.00;2.10;;;22.90;52.80;;;;;;10477872;28;20195;-67
2023/06/13 20:13:38;;;;;;;4.10;2.03;;;23.20;52.90;;;;;;10480217;28;20032;-69
2023/06/13 20:18:39;;;;;;;2.92;2.20;;;23.30;52.90;;;;;;10481536;28;20016;-68
2023/06/13 20:23:39;;;;;;;4.32;2.08;;;23.50;53.10;;;;;;10479718;28;20040;-67
2023/06/13 20:28:40;;;;;;;3.35;2.10;;;23.60;53.40;;;;;;10478906;28;20453;-68
2023/06/13 20:33:41;;;;;;;2.97;2.08;;;23.60;53.50;;;;;;10475833;28;20078;-67
2023/06/13 20:38:41;;;;;;;2.63;1.95;;;23.70;53.60;;;;;;10477790;28;20013;-66
2023/06/13 20:43:42;;;;;;;2.50;1.95;;;23.80;53.90;;;;;;10473557;28;20025;-67
2023/06/13 20:48:45;;;;;;;5.00;2.30;;;23.80;54.00;;;;;;10479022;28;20028;-67
2023/06/13 20:53:45;;;;;;;3.17;2.40;;;23.80;54.20;;;;;;10480421;28;20078;-67
2023/06/13 20:58:49;;;;;;;4.55;2.30;;;23.80;54.30;;;;;;10480474;28;20089;-67
2023/06/13 21:04:03;;;;;;;5.10;2.30;;;23.80;54.50;;;;;;10473377;28;20154;-67
2023/06/13 21:09:04;;;;;;;3.72;2.22;;;23.80;54.80;;;;;;10487539;28;20033;-67
2023/06/13 21:14:06;;;;;;;4.43;2.13;;;23.80;54.90;;;;;;10479236;28;20035;-67
2023/06/13 21:19:06;;;;;;;3.90;2.10;;;23.80;55.10;;;;;;10481368;28;20017;-67
2023/06/13 21:24:08;;;;;;;2.60;2.20;;;23.80;55.20;;;;;;10479537;28;20012;-68
2023/06/13 21:29:08;;;;;;;3.47;2.22;;;23.80;55.50;;;;;;10493669;28;20025;-68
2023/06/13 21:34:09;;;;;;;3.97;2.22;;;23.80;55.70;;;;;;10479914;28;20031;-69
2023/06/13 21:39:10;;;;;;;3.45;2.30;;;23.80;55.90;;;;;;10478910;28;20063;-70
2023/06/13 21:44:10;;;;;;;2.85;2.10;;;23.80;56.10;;;;;;10477667;28;20020;-69
2023/06/13 21:49:11;;;;;;;3.10;2.30;;;23.70;56.20;;;;;;10470650;28;20032;-69
2023/06/13 21:54:11;;;;;;;3.55;2.10;;;23.70;56.40;;;;;;10480288;28;20021;-69
2023/06/13 21:59:12;;;;;;;6.95;2.60;;;23.70;56.60;;;;;;10476634;28;20037;-69
2023/06/13 22:04:12;;;;;;;2.88;2.10;;;23.70;56.70;;;;;;10473981;28;20035;-70
2023/06/13 22:09:14;;;;;;;5.35;2.25;;;23.70;56.90;;;;;;10477219;28;21008;-69
2023/06/13 22:14:15;;;;;;;4.38;2.50;;;23.60;56.90;;;;;;10476760;28;20090;-69
2023/06/13 22:19:15;;;;;;;4.47;2.17;;;23.60;57.10;;;;;;10479451;28;20372;-69
2023/06/13 22:24:17;;;;;;;3.72;2.25;;;23.60;57.80;;;;;;10480226;28;20066;-69
2023/06/13 22:29:17;;;;;;;4.05;2.45;;;23.50;57.20;;;;;;10484330;28;20024;-69
2023/06/13 22:34:18;;;;;;;2.80;2.20;;;23.50;57.30;;;;;;10494023;28;20016;-69
2023/06/13 22:39:19;;;;;;;3.78;2.28;;;23.50;57.50;;;;;;10486423;28;20040;-69
2023/06/13 22:44:19;;;;;;;3.63;2.13;;;23.50;57.50;;;;;;10482709;28;20035;-69
2023/06/13 22:49:20;;;;;;;3.65;2.30;;;23.40;57.60;;;;;;10484593;28;20013;-69
2023/06/13 22:54:21;;;;;;;3.72;2.30;;;23.40;57.60;;;;;;10484130;28;20021;-69
2023/06/13 22:59:22;;;;;;;3.25;2.40;;;23.40;57.70;;;;;;10483456;28;20028;-69
2023/06/13 23:04:23;;;;;;;3.22;2.22;;;23.30;57.80;;;;;;10479200;28;20017;-69
2023/06/13 23:09:24;;;;;;;3.30;2.30;;;23.30;57.80;;;;;;10477725;28;20078;-69
2023/06/13 23:14:24;;;;;;;3.20;2.47;;;23.20;57.80;;;;;;10484970;28;20086;-69
2023/06/13 23:19:25;;;;;;;4.80;2.25;;;23.30;57.90;;;;;;10481460;28;20507;-69
2023/06/13 23:24:26;;;;;;;3.55;2.40;;;23.20;57.90;;;;;;10477195;28;20031;-70
2023/06/13 23:29:28;;;;;;;4.38;2.38;;;23.20;58.00;;;;;;10481623;28;20506;-69
2023/06/13 23:34:28;;;;;;;4.28;2.50;;;23.20;58.00;;;;;;10483569;28;20063;-69
2023/06/13 23:39:29;;;;;;;4.13;2.08;;;23.10;57.90;;;;;;10481711;28;20536;-69
2023/06/13 23:44:29;;;;;;;4.72;2.83;;;23.10;58.00;;;;;;10483069;28;20630;-69
2023/06/13 23:49:30;;;;;;;5.40;2.40;;;23.00;57.90;;;;;;10479003;28;20370;-69
2023/06/13 23:54:31;;;;;;;4.80;2.15;;;22.90;58.00;;;;;;10472965;28;20027;-69
2023/06/13 23:59:31;;;;;;;3.95;2.20;;;22.90;58.00;;;;;;10477751;28;20032;-69
